Time;durP1;ratioP1;P1;durP2;ratioP2;P2;SDS_P1;SDS_P2;PMS_P1;PMS_P2;Temp;Humidity;BMP_temperature;BMP_pressure;BME280_temperature;BME280_humidity;BME280_pressure;Samples;Min_cycle;Max_cycle;Signal;HPM_P1;HPM_P2
2022/06/08 00:00:31;;;;;;;0.40;0.30;;;13.10;1.40;;;14.19;100.00;95178.06;620378;226;31828;-75
2022/06/08 00:03:15;;;;;;;0.60;0.50;;;13.10;1.40;;;14.20;100.00;95182.50;622214;222;32181;-77
2022/06/08 00:08:31;;;;;;;0.60;0.30;;;13.20;1.40;;;14.18;100.00;95175.20;642496;212;31647;-77
2022/06/08 00:11:18;;;;;;;1.00;0.40;;;13.20;1.40;;;14.25;100.00;95181.02;646505;216;31587;-75
2022/06/08 00:14:00;;;;;;;0.70;0.70;;;13.10;1.40;;;14.12;100.00;95180.97;646952;216;31473;-75
2022/06/08 00:16:44;;;;;;;0.70;0.40;;;13.10;1.40;;;14.17;100.00;95179.11;647346;216;32174;-78
2022/06/08 00:19:32;;;;;;;0.40;0.30;;;13.10;1.40;;;14.21;100.00;95169.42;648235;216;31471;-76
2022/06/08 00:22:20;;;;;;;0.40;0.30;;;13.10;1.40;;;14.18;100.00;95174.41;648512;212;31543;-77
2022/06/08 00:25:08;;;;;;;0.50;0.40;;;13.10;1.40;;;14.18;100.00;95166.77;648730;216;31477;-75
2022/06/08 00:28:16;;;;;;;0.50;0.40;;;13.10;1.40;;;14.20;100.00;95162.98;643664;215;32127;-77
2022/06/08 00:31:01;;;;;;;0.40;0.20;;;13.10;1.40;;;14.17;100.00;95162.83;650726;212;31511;-77
2022/06/08 00:35:51;;;;;;;0.40;0.30;;;13.00;1.40;;;14.05;100.00;95167.38;622059;222;31958;-78
2022/06/08 00:38:39;;;;;;;0.70;0.40;;;13.00;1.40;;;14.03;100.00;95165.43;647843;212;31500;-74
2022/06/08 00:41:25;;;;;;;0.40;0.30;;;13.00;1.40;;;13.94;100.00;95158.82;647562;216;31470;-75
2022/06/08 00:44:17;;;;;;;0.62;0.43;;;13.10;1.40;;;13.96;100.00;95155.52;647930;216;31451;-75
2022/06/08 00:47:01;;;;;;;0.60;0.50;;;13.10;1.40;;;14.05;100.00;95152.05;648310;212;31482;-79
2022/06/08 00:49:44;;;;;;;1.20;0.90;;;13.10;1.40;;;14.08;100.00;95153.67;649104;213;32896;-77
2022/06/08 00:52:28;;;;;;;0.55;0.35;;;13.10;1.40;;;14.11;100.00;95150.66;645183;212;31861;-75
2022/06/08 00:55:15;;;;;;;0.40;0.30;;;13.20;1.40;;;14.14;100.00;95151.50;647780;212;31488;-77
2022/06/08 00:57:59;;;;;;;0.50;0.47;;;13.20;1.40;;;14.19;100.00;95151.52;651598;216;42103;-75
2022/06/08 01:00:40;;;;;;;0.50;0.30;;;13.30;1.40;;;14.29;100.00;95151.24;650889;216;31504;-76
2022/06/08 01:06:03;;;;;;;0.50;0.30;;;13.20;1.40;;;14.31;100.00;95146.44;653394;216;31554;-75
2022/06/08 01:08:46;;;;;;;0.50;0.50;;;13.20;1.40;;;14.28;100.00;95140.80;645323;216;31625;-75
2022/06/08 01:11:59;;;;;;;0.80;0.40;;;13.20;1.40;;;14.26;100.00;95138.28;650780;216;31491;-77
2022/06/08 01:14:47;;;;;;;0.40;0.30;;;13.30;1.40;;;14.30;100.00;95134.23;650308;216;31504;-75
2022/06/08 01:17:28;;;;;;;0.50;0.30;;;13.20;1.40;;;14.23;100.00;95132.92;646593;212;31473;-76
2022/06/08 01:20:16;;;;;;;0.70;0.50;;;13.30;1.40;;;14.20;100.00;95130.39;646118;216;31573;-76
2022/06/08 01:23:04;;;;;;;0.40;0.30;;;13.30;1.40;;;14.20;100.00;95124.09;647090;216;31479;-75
2022/06/08 01:25:56;;;;;;;0.40;0.32;;;13.20;1.40;;;14.14;100.00;95120.46;647271;216;31510;-75
2022/06/08 01:28:58;;;;;;;0.60;0.60;;;13.20;1.40;;;14.12;100.00;95123.47;617917;222;31919;-76
2022/06/08 01:31:46;;;;;;;1.10;0.40;;;13.20;1.40;;;14.19;100.00;95118.02;652193;216;31470;-76
2022/06/08 01:36:33;;;;;;;0.40;0.40;;;13.20;1.40;;;14.21;100.00;95108.65;648581;216;31479;-75
2022/06/08 01:39:45;;;;;;;0.50;0.50;;;13.20;1.40;;;14.20;100.00;95101.34;651318;212;31560;-75
2022/06/08 01:42:35;;;;;;;0.47;0.40;;;13.10;1.40;;;14.20;100.00;95102.00;645148;216;31465;-75
2022/06/08 01:45:28;;;;;;;0.40;0.30;;;13.10;1.40;;;14.17;100.00;95098.33;647338;216;32000;-75
2022/06/08 01:48:35;;;;;;;0.50;0.40;;;13.30;1.40;;;14.15;100.00;95100.63;645430;216;31489;-75
2022/06/08 01:54:09;;;;;;;0.50;0.40;;;13.30;1.40;;;14.17;100.00;95092.52;646674;216;32065;-75
2022/06/08 01:57:11;;;;;;;1.40;0.60;;;13.30;1.40;;;14.16;100.00;95093.86;647391;215;31625;-76
2022/06/08 02:00:05;;;;;;;0.60;0.40;;;13.20;1.40;;;14.12;100.00;95087.27;649577;216;31479;-77
2022/06/08 02:06:08;;;;;;;0.40;0.40;;;13.10;1.40;;;13.95;100.00;95089.97;647894;212;32037;-77
2022/06/08 02:11:56;;;;;;;0.70;0.30;;;12.90;1.40;;;13.72;100.00;95084.37;650489;216;31499;-78
2022/06/08 02:14:45;;;;;;;0.50;0.40;;;12.90;1.40;;;13.66;100.00;95076.48;644184;216;32848;-78
2022/06/08 02:17:32;;;;;;;0.40;0.20;;;12.80;1.40;;;13.55;100.00;95076.39;645290;216;31459;-75
2022/06/08 02:20:21;;;;;;;0.40;0.30;;;12.70;1.40;;;13.45;100.00;95070.16;645920;216;31492;-76
2022/06/08 02:23:09;;;;;;;0.70;0.70;;;12.60;1.40;;;13.39;100.00;95066.94;648774;216;31781;-77
2022/06/08 02:26:01;;;;;;;0.40;0.30;;;12.50;1.40;;;13.37;100.00;95069.69;648881;216;31490;-76
2022/06/08 02:28:50;;;;;;;0.40;0.20;;;12.40;1.40;;;13.29;100.00;95074.48;651142;216;31864;-76
2022/06/08 02:31:36;;;;;;;0.70;0.50;;;12.40;1.40;;;13.21;100.00;95071.94;650044;216;42106;-76
2022/06/08 02:35:54;;;;;;;0.60;0.57;;;12.30;1.40;;;13.10;100.00;95073.27;646685;216;31534;-75
2022/06/08 02:38:36;;;;;;;0.50;0.20;;;12.30;1.40;;;13.04;100.00;95067.42;648268;212;31511;-76
2022/06/08 02:41:24;;;;;;;0.70;0.55;;;12.20;1.40;;;12.96;100.00;95063.87;649022;216;42127;-76
2022/06/08 02:44:06;;;;;;;0.50;0.40;;;12.10;1.40;;;12.84;100.00;95062.61;646889;216;39110;-76
2022/06/08 02:46:50;;;;;;;0.57;0.37;;;12.00;1.40;;;12.74;100.00;95059.23;645361;216;31594;-75
2022/06/08 02:49:34;;;;;;;0.60;0.30;;;11.90;1.40;;;12.69;100.00;95059.64;645676;212;40793;-76
2022/06/08 02:52:19;;;;;;;0.40;0.30;;;11.90;1.40;;;12.66;100.00;95064.81;652212;216;42690;-75
2022/06/08 02:54:59;;;;;;;0.50;0.32;;;11.90;1.40;;;12.65;100.00;95069.77;645451;212;42121;-75
2022/06/08 02:57:41;;;;;;;0.40;0.30;;;11.90;1.40;;;12.62;100.00;95068.19;646641;212;31487;-76
2022/06/08 03:03:12;;;;;;;5.50;0.50;;;11.80;1.40;;;12.52;100.00;95069.55;643546;216;31493;-75
2022/06/08 03:06:01;;;;;;;0.97;0.30;;;11.70;1.40;;;12.51;100.00;95071.33;650533;216;31566;-75
2022/06/08 03:08:45;;;;;;;0.50;0.40;;;11.70;1.40;;;12.44;100.00;95067.34;643068;216;42010;-77
2022/06/08 03:11:28;;;;;;;1.30;0.40;;;11.60;1.40;;;12.42;100.00;95070.36;648275;216;36565;-75
2022/06/08 03:14:16;;;;;;;0.50;0.40;;;11.60;1.40;;;12.39;100.00;95072.35;622228;226;38770;-77
2022/06/08 03:16:59;;;;;;;2.70;0.30;;;11.60;1.40;;;12.37;100.00;95069.82;647098;216;31492;-79
2022/06/08 03:19:43;;;;;;;0.40;0.30;;;11.60;1.40;;;12.32;100.00;95071.13;629088;222;35391;-75
2022/06/08 03:22:25;;;;;;;0.47;0.30;;;11.50;1.40;;;12.26;100.00;95066.78;646466;216;31533;-76
2022/06/08 03:25:12;;;;;;;0.40;0.30;;;11.40;1.40;;;12.15;100.00;95068.77;649074;216;33492;-76
2022/06/08 03:28:00;;;;;;;0.40;0.20;;;11.20;1.40;;;12.10;100.00;95066.88;651960;216;31475;-76
2022/06/08 03:30:47;;;;;;;0.50;0.30;;;11.20;1.40;;;12.04;100.00;95069.82;649160;212;35888;-76
2022/06/08 03:35:54;;;;;;;0.50;0.30;;;11.00;1.40;;;11.90;100.00;95071.30;650381;216;31540;-75
2022/06/08 03:38:37;;;;;;;0.60;0.60;;;11.00;1.40;;;11.98;100.00;95075.83;646548;212;32656;-77
2022/06/08 03:41:19;;;;;;;0.40;0.30;;;11.20;1.40;;;12.04;100.00;95071.33;645764;216;42109;-77
2022/06/08 03:44:03;;;;;;;0.40;0.20;;;11.20;1.40;;;12.03;100.00;95074.13;653457;216;34962;-78
2022/06/08 03:46:46;;;;;;;0.40;0.40;;;11.30;1.40;;;12.09;100.00;95079.78;646033;216;31466;-75
2022/06/08 03:49:30;;;;;;;0.40;0.30;;;11.40;1.40;;;12.11;100.00;95078.28;631247;217;40146;-76
2022/06/08 03:52:17;;;;;;;0.60;0.50;;;11.40;1.40;;;12.20;100.00;95073.96;645504;212;31483;-75
2022/06/08 03:55:06;;;;;;;0.60;0.50;;;11.50;1.40;;;12.23;100.00;95074.67;647524;216;33453;-76
2022/06/08 03:57:53;;;;;;;0.60;0.40;;;11.60;1.40;;;12.28;100.00;95085.03;621447;226;33634;-75
2022/06/08 04:00:41;;;;;;;0.47;0.30;;;11.70;1.40;;;12.25;100.00;95076.83;646058;216;33194;-77
2022/06/08 04:03:23;;;;;;;0.80;0.40;;;11.60;1.40;;;12.24;100.00;95071.83;648094;216;31542;-76
2022/06/08 04:06:05;;;;;;;0.40;0.30;;;11.50;1.40;;;12.22;100.00;95068.99;645967;216;31951;-77
2022/06/08 04:08:46;;;;;;;0.80;0.40;;;11.50;1.40;;;12.26;100.00;95067.11;640354;216;31651;-76
2022/06/08 04:11:28;;;;;;;0.40;0.40;;;11.50;1.40;;;12.28;100.00;95068.11;646128;216;31467;-77
2022/06/08 04:14:12;;;;;;;0.55;0.50;;;11.40;1.40;;;12.34;100.00;95070.19;643754;212;32493;-75
2022/06/08 04:16:53;;;;;;;0.60;0.50;;;11.60;1.40;;;12.38;100.00;95070.98;645671;212;31473;-75
2022/06/08 04:22:17;;;;;;;0.40;0.30;;;11.80;1.40;;;12.48;100.00;95063.27;643991;216;31482;-78
2022/06/08 04:25:00;;;;;;;0.40;0.30;;;11.80;1.40;;;12.57;100.00;95063.31;645936;216;33772;-75
2022/06/08 04:27:42;;;;;;;2.00;0.60;;;11.90;1.40;;;12.68;100.00;95060.61;649361;216;42162;-75
2022/06/08 04:30:24;;;;;;;0.60;0.40;;;11.90;1.40;;;12.73;100.00;95062.28;647211;216;34217;-75
2022/06/08 04:35:51;;;;;;;1.00;0.50;;;12.10;1.40;;;12.87;100.00;95057.20;618765;226;31932;-75
2022/06/08 04:38:32;;;;;;;0.90;0.40;;;12.20;1.40;;;13.03;100.00;95058.17;649647;216;33011;-76
2022/06/08 04:41:20;;;;;;;0.40;0.37;;;12.40;1.40;;;13.18;100.00;95051.09;645557;216;31602;-77
2022/06/08 04:44:08;;;;;;;0.90;0.50;;;12.60;1.40;;;13.34;100.00;95054.42;646559;216;36085;-75
2022/06/08 04:46:55;;;;;;;1.10;0.50;;;12.80;1.40;;;13.52;100.00;95053.38;650351;216;31546;-78
2022/06/08 04:49:39;;;;;;;0.47;0.30;;;12.90;1.40;;;13.69;100.00;95054.63;646643;212;42161;-75
2022/06/08 04:52:21;;;;;;;1.12;0.47;;;13.00;1.40;;;13.85;100.00;95056.66;646989;216;42764;-75
2022/06/08 04:55:02;;;;;;;2.50;0.50;;;13.20;1.40;;;14.02;100.00;95063.31;646471;216;42926;-75
2022/06/08 04:57:44;;;;;;;0.50;0.30;;;13.30;1.40;;;14.14;100.00;95062.47;650410;212;32126;-75
2022/06/08 05:00:26;;;;;;;0.50;0.40;;;13.50;1.40;;;14.31;100.00;95062.09;647775;216;31613;-75
2022/06/08 05:03:07;;;;;;;0.90;0.60;;;13.60;1.40;;;14.51;100.00;95061.32;645699;216;31617;-75
2022/06/08 05:05:49;;;;;;;1.30;0.52;;;13.90;1.40;;;14.76;100.00;95057.58;648334;216;31520;-75
2022/06/08 05:08:34;;;;;;;1.33;0.50;;;14.00;1.40;;;14.87;100.00;95058.45;645692;212;31471;-75
2022/06/08 05:11:19;;;;;;;0.50;0.40;;;14.10;1.40;;;15.00;100.00;95061.70;647136;212;31480;-77
2022/06/08 05:14:01;;;;;;;0.80;0.60;;;14.20;1.40;;;15.11;100.00;95058.42;646156;212;31621;-77
2022/06/08 05:16:43;;;;;;;0.70;0.45;;;14.40;1.40;;;15.30;100.00;95058.27;646693;212;31473;-76
2022/06/08 05:19:24;;;;;;;0.50;0.37;;;14.50;1.40;;;15.40;100.00;95061.82;619275;226;31786;-77
2022/06/08 05:22:12;;;;;;;0.60;0.55;;;14.60;1.40;;;15.50;100.00;95061.99;646612;216;31535;-74
2022/06/08 05:25:00;;;;;;;0.80;0.47;;;14.70;1.40;;;15.73;100.00;95064.32;618217;222;31879;-76
2022/06/08 05:27:41;;;;;;;0.80;0.35;;;15.00;1.40;;;15.90;100.00;95054.87;648896;212;32023;-76
2022/06/08 05:30:25;;;;;;;0.68;0.50;;;15.10;1.40;;;15.95;100.00;95053.06;651049;212;31932;-77
2022/06/08 05:35:51;;;;;;;0.60;0.40;;;15.10;1.40;;;15.91;100.00;95050.20;648416;216;42722;-74
2022/06/08 05:38:39;;;;;;;1.00;0.50;;;15.10;1.40;;;15.92;100.00;95052.63;645034;212;32058;-76
2022/06/08 05:41:27;;;;;;;0.60;0.50;;;15.20;1.40;;;16.03;100.00;95050.62;650233;216;31704;-74
2022/06/08 05:44:10;;;;;;;0.70;0.40;;;15.30;1.40;;;16.09;100.00;95049.58;648466;212;32226;-74
2022/06/08 05:46:55;;;;;;;0.50;0.35;;;15.40;1.40;;;16.05;100.00;95049.69;646318;212;31480;-77
2022/06/08 05:49:37;;;;;;;0.98;0.70;;;15.30;1.40;;;16.07;100.00;95052.03;651299;212;31503;-76
2022/06/08 05:52:19;;;;;;;1.20;0.70;;;15.30;1.40;;;16.07;100.00;95056.66;649024;212;31481;-77
2022/06/08 05:57:39;;;;;;;0.40;0.40;;;15.40;1.40;;;16.18;100.00;95052.92;622027;226;31816;-74
2022/06/08 06:00:25;;;;;;;1.10;0.60;;;15.50;1.40;;;16.26;100.00;95056.72;646215;216;31518;-74
2022/06/08 06:03:07;;;;;;;2.10;0.70;;;15.50;1.40;;;16.17;100.00;95054.28;645165;216;31479;-74
2022/06/08 06:05:54;;;;;;;0.50;0.40;;;15.40;1.40;;;16.27;100.00;95055.09;647864;212;42675;-76
2022/06/08 06:08:41;;;;;;;0.80;0.40;;;15.50;1.40;;;16.33;100.00;95057.20;642060;216;31648;-77
2022/06/08 06:11:28;;;;;;;1.30;0.50;;;15.60;1.40;;;16.44;100.00;95055.94;647430;216;31511;-75
2022/06/08 06:14:16;;;;;;;0.50;0.35;;;15.70;1.40;;;16.54;100.00;95052.97;622799;226;31813;-77
2022/06/08 06:17:06;;;;;;;0.82;0.65;;;15.80;1.40;;;16.59;100.00;95048.91;649757;216;31501;-74
2022/06/08 06:19:50;;;;;;;0.70;0.32;;;15.80;1.40;;;16.58;100.00;95048.13;649081;216;31472;-75
2022/06/08 06:22:33;;;;;;;0.50;0.40;;;15.80;1.40;;;16.56;100.00;95052.67;650284;212;31460;-77
2022/06/08 06:25:16;;;;;;;0.50;0.30;;;15.80;1.40;;;16.71;100.00;95051.87;647266;216;31466;-75
2022/06/08 06:28:00;;;;;;;0.62;0.45;;;16.00;1.40;;;16.78;100.00;95049.44;647587;212;32408;-74
2022/06/08 06:30:42;;;;;;;1.00;0.40;;;16.00;1.40;;;16.83;100.00;95045.70;647021;216;31572;-74
2022/06/08 06:35:51;;;;;;;0.80;0.45;;;16.10;1.40;;;16.87;100.00;95049.86;646042;216;31489;-74
2022/06/08 06:38:36;;;;;;;0.80;0.60;;;16.10;1.40;;;16.83;100.00;95050.88;647098;216;31467;-74
2022/06/08 06:41:18;;;;;;;0.70;0.43;;;16.00;1.40;;;16.84;100.00;95048.75;646569;216;31465;-75
2022/06/08 06:44:03;;;;;;;0.77;0.50;;;15.80;1.40;;;16.87;100.00;95051.13;644910;216;31496;-75
2022/06/08 06:46:44;;;;;;;1.85;0.40;;;16.10;1.40;;;16.92;100.00;95051.45;647080;212;31499;-74
2022/06/08 06:49:27;;;;;;;0.70;0.50;;;16.10;1.40;;;16.98;100.00;95043.00;618894;222;31961;-75
2022/06/08 06:52:08;;;;;;;0.68;0.60;;;16.10;1.40;;;17.07;100.00;95040.61;646709;216;31488;-74
2022/06/08 06:54:50;;;;;;;0.60;0.50;;;16.10;1.40;;;17.12;100.00;95035.14;644558;216;31492;-74
2022/06/08 06:57:34;;;;;;;0.90;0.30;;;16.20;1.40;;;17.15;100.00;95035.91;619490;226;31884;-74
2022/06/08 07:00:17;;;;;;;1.30;0.80;;;16.10;1.40;;;16.98;100.00;95046.66;645258;212;31858;-74
2022/06/08 07:03:05;;;;;;;0.70;0.50;;;16.10;1.40;;;17.10;100.00;95047.06;646004;216;31814;-77
2022/06/08 07:05:52;;;;;;;0.57;0.40;;;16.10;1.40;;;17.30;100.00;95044.41;647359;216;31610;-74
2022/06/08 07:08:34;;;;;;;0.50;0.30;;;16.10;1.40;;;17.33;100.00;95041.93;645381;216;31622;-74
2022/06/08 07:14:03;;;;;;;0.50;0.40;;;16.40;1.40;;;17.35;100.00;95031.70;645710;216;31745;-74
2022/06/08 07:16:46;;;;;;;1.70;0.90;;;16.50;1.40;;;17.41;100.00;95028.69;646943;216;31502;-74
2022/06/08 07:19:26;;;;;;;4.00;0.50;;;16.60;1.40;;;17.58;100.00;95030.24;646761;216;31499;-74
2022/06/08 07:22:08;;;;;;;0.77;0.40;;;16.70;1.40;;;17.50;100.00;95029.39;646522;216;31490;-74
2022/06/08 07:24:51;;;;;;;1.70;0.47;;;16.60;1.40;;;17.67;100.00;95029.80;646369;212;31478;-77
2022/06/08 07:27:39;;;;;;;2.80;0.50;;;16.90;1.40;;;17.78;100.00;95026.22;646294;216;31488;-74
2022/06/08 07:30:27;;;;;;;0.55;0.40;;;17.00;1.40;;;17.66;100.00;95021.20;619134;226;31815;-78
2022/06/08 07:35:51;;;;;;;0.70;0.60;;;17.20;1.40;;;17.96;100.00;95017.91;646284;216;31895;-74
2022/06/08 07:38:33;;;;;;;0.60;0.50;;;17.20;1.40;;;18.10;100.00;95013.69;647012;216;31476;-76
2022/06/08 07:41:17;;;;;;;0.40;0.40;;;17.40;1.40;;;18.22;100.00;95015.47;645520;216;32083;-74
2022/06/08 07:43:59;;;;;;;0.50;0.30;;;17.50;1.40;;;18.05;100.00;95010.88;646636;216;31705;-74
2022/06/08 07:52:05;;;;;;;1.00;0.40;;;17.10;1.40;;;18.14;100.00;95002.47;644862;216;31497;-74
2022/06/08 07:54:45;;;;;;;0.50;0.40;;;17.20;1.40;;;18.23;100.00;94998.71;619428;222;31805;-74
2022/06/08 07:57:33;;;;;;;0.60;0.50;;;17.30;1.40;;;18.46;100.00;94993.55;646280;216;31519;-74
2022/06/08 08:00:12;;;;;;;1.02;0.60;;;17.50;1.40;;;18.36;100.00;94989.33;646507;216;33139;-74
2022/06/08 08:02:53;;;;;;;2.12;0.47;;;17.50;1.40;;;18.58;100.00;94985.10;646394;216;31517;-74
2022/06/08 08:05:35;;;;;;;0.90;0.40;;;17.80;1.40;;;18.70;100.00;94985.86;645761;216;31473;-74
2022/06/08 08:08:17;;;;;;;0.60;0.50;;;17.90;1.40;;;18.75;100.00;94979.44;645352;216;31565;-74
2022/06/08 08:10:59;;;;;;;1.20;1.10;;;17.90;1.40;;;18.87;100.00;94977.56;647041;216;31486;-74
2022/06/08 08:13:40;;;;;;;1.70;0.80;;;18.10;1.40;;;18.93;100.00;94970.13;645980;216;31482;-75
2022/06/08 08:16:22;;;;;;;0.57;0.57;;;18.00;1.40;;;19.20;100.00;94966.36;645468;216;31600;-74
2022/06/08 08:19:04;;;;;;;0.80;0.60;;;18.10;1.40;;;19.48;100.00;94968.30;646646;216;42162;-74
2022/06/08 08:21:46;;;;;;;0.60;0.55;;;18.40;1.40;;;19.85;100.00;94965.16;646518;212;42235;-74
2022/06/08 08:24:27;;;;;;;1.00;0.32;;;19.00;1.40;;;20.09;100.00;94965.53;647237;216;31573;-74
2022/06/08 08:27:09;;;;;;;2.10;0.50;;;19.30;1.40;;;20.57;100.00;94959.30;647180;216;31498;-75
2022/06/08 08:29:51;;;;;;;0.70;0.50;;;19.50;1.40;;;20.88;100.00;94956.09;647050;216;31486;-74
2022/06/08 08:32:32;;;;;;;1.35;0.70;;;19.90;1.40;;;21.39;100.00;94954.09;646334;216;31474;-74
2022/06/08 08:35:52;;;;;;;0.60;0.50;;;20.00;1.40;;;21.59;99.10;94951.84;646382;216;42324;-75
2022/06/08 08:38:32;;;;;;;1.02;0.52;;;20.40;1.40;;;21.63;96.94;94955.04;647294;216;31493;-74
2022/06/08 08:44:01;;;;;;;1.33;0.60;;;20.30;1.40;;;21.24;90.31;94943.84;645907;216;31694;-74
2022/06/08 08:46:48;;;;;;;0.77;0.53;;;19.70;1.40;;;20.98;95.79;94940.72;646955;212;31604;-74
2022/06/08 08:49:30;;;;;;;1.30;0.40;;;19.50;1.40;;;20.39;88.08;94943.42;647560;216;32110;-74
2022/06/08 08:52:12;;;;;;;2.80;0.70;;;19.10;1.40;;;20.06;88.12;94944.82;645483;216;32208;-76
2022/06/08 08:54:57;;;;;;;0.98;0.50;;;18.90;1.40;;;20.61;90.51;94936.84;647863;216;31570;-74
2022/06/08 08:57:47;;;;;;;2.28;0.73;;;19.40;1.40;;;20.59;88.02;94934.67;647811;212;31479;-78
2022/06/08 09:00:38;;;;;;;0.73;0.47;;;19.60;1.40;;;20.95;89.03;94932.63;647121;216;31543;-74
2022/06/08 09:03:29;;;;;;;1.60;0.60;;;19.90;1.40;;;21.43;80.55;94931.43;646944;216;31607;-74
2022/06/08 09:06:28;;;;;;;2.20;0.40;;;20.00;1.40;;;21.89;79.49;94926.06;646420;216;31450;-74
2022/06/08 09:09:11;;;;;;;2.30;0.40;;;20.40;1.40;;;21.55;77.54;94924.61;642674;216;31779;-75
2022/06/08 09:11:52;;;;;;;1.35;0.60;;;20.20;1.40;;;21.99;73.84;94922.23;647167;212;32079;-74
2022/06/08 09:14:52;;;;;;;0.70;0.40;;;20.80;1.40;;;22.80;77.58;94913.75;646345;216;32192;-74
2022/06/08 09:17:37;;;;;;;0.65;0.30;;;21.70;1.40;;;23.33;76.63;94903.81;646397;216;32300;-74
2022/06/08 09:22:54;;;;;;;2.45;0.60;;;20.60;1.40;;;21.56;72.90;94903.77;647086;216;42798;-74
2022/06/08 09:25:36;;;;;;;0.60;0.32;;;20.10;1.40;;;22.05;75.24;94903.20;644496;216;31511;-74
2022/06/08 09:28:22;;;;;;;0.80;0.40;;;21.60;1.40;;;21.97;71.83;94893.67;646655;216;31468;-74
2022/06/08 09:31:04;;;;;;;1.90;0.60;;;22.30;1.40;;;24.50;67.25;94877.96;645919;216;31499;-74
2022/06/08 09:35:54;;;;;;;0.80;0.70;;;24.90;1.40;;;25.84;58.21;94871.06;619621;222;31876;-74
2022/06/08 09:38:36;;;;;;;0.70;0.60;;;25.80;1.40;;;27.41;54.97;94874.13;646124;216;31814;-74
2022/06/08 09:41:24;;;;;;;1.30;0.60;;;27.50;1.40;;;27.09;51.14;94870.38;619173;222;31794;-75
2022/06/08 09:44:23;;;;;;;1.90;0.62;;;27.10;1.40;;;27.16;50.52;94865.42;647235;212;31459;-75
2022/06/08 09:53:03;;;;;;;0.70;0.50;;;24.10;1.40;;;25.03;56.24;94858.77;647492;212;31520;-74
2022/06/08 09:56:13;;;;;;;0.60;0.50;;;22.60;1.40;;;26.51;65.95;94854.98;645118;212;31686;-75
2022/06/08 09:59:12;;;;;;;1.20;0.47;;;23.40;1.40;;;26.46;63.35;94851.48;648112;212;32323;-74
2022/06/08 10:01:58;;;;;;;0.70;0.50;;;25.80;1.40;;;28.46;56.81;94836.51;646661;216;31608;-75
2022/06/08 10:04:49;;;;;;;0.80;0.40;;;27.70;1.40;;;29.42;49.33;94833.15;645951;216;31459;-73
2022/06/08 10:07:38;;;;;;;1.60;0.80;;;27.30;1.40;;;29.65;50.31;94836.28;647093;212;31604;-74
2022/06/08 10:10:39;;;;;;;1.10;0.57;;;25.60;1.40;;;28.33;56.79;94835.27;637772;216;31683;-75
2022/06/08 10:13:21;;;;;;;1.00;0.50;;;26.70;1.40;;;29.11;51.72;94829.91;647194;212;31742;-75
2022/06/08 10:16:02;;;;;;;1.10;0.70;;;27.70;1.40;;;31.49;48.12;94823.97;640017;217;31673;-75
2022/06/08 10:18:45;;;;;;;3.53;0.60;;;29.10;1.40;;;27.56;46.84;94823.04;646992;216;31684;-75
2022/06/08 10:21:27;;;;;;;0.70;0.70;;;23.70;1.40;;;27.67;53.69;94816.85;646096;216;42511;-75
2022/06/08 10:24:13;;;;;;;0.70;0.60;;;22.30;1.40;;;25.78;54.68;94823.83;646627;216;31718;-73
2022/06/08 10:27:07;;;;;;;1.80;0.65;;;21.70;1.40;;;25.59;49.94;94821.02;646399;212;31603;-77
2022/06/08 10:30:19;;;;;;;2.83;0.50;;;23.90;1.40;;;27.83;47.24;94808.86;645153;216;31494;-75
2022/06/08 10:35:51;;;;;;;0.93;0.60;;;22.60;1.40;;;27.62;48.72;94803.55;645789;212;31722;-75
2022/06/08 10:38:41;;;;;;;0.60;0.40;;;23.60;1.40;;;25.81;49.07;94808.88;647049;216;42520;-77
2022/06/08 10:46:52;;;;;;;1.73;0.50;;;23.50;1.40;;;27.88;48.55;94794.24;645705;216;31522;-75
2022/06/08 10:49:47;;;;;;;0.60;0.45;;;24.50;1.40;;;27.21;46.10;94792.91;647296;212;31486;-77
2022/06/08 10:52:28;;;;;;;1.25;0.47;;;23.20;1.40;;;27.07;48.23;94796.00;646648;212;31769;-77
2022/06/08 10:55:31;;;;;;;0.60;0.50;;;22.40;1.40;;;25.92;56.41;94799.78;646760;212;32046;-75
2022/06/08 10:58:19;;;;;;;1.00;0.60;;;22.70;1.40;;;28.63;51.95;94787.59;646671;212;31596;-77
2022/06/08 11:01:04;;;;;;;1.77;0.47;;;24.60;1.40;;;27.77;50.95;94784.23;646298;216;31992;-75
2022/06/08 11:03:47;;;;;;;0.80;0.70;;;25.00;1.40;;;28.43;52.09;94782.93;646629;216;31478;-76
2022/06/08 11:07:01;;;;;;;0.98;0.60;;;24.20;1.40;;;29.32;48.73;94774.52;645242;216;31489;-75
2022/06/08 11:12:17;;;;;;;0.70;0.70;;;25.10;1.40;;;31.43;42.54;94754.44;616119;226;31821;-75
2022/06/08 11:14:59;;;;;;;0.80;0.60;;;28.10;1.40;;;32.12;40.22;94748.47;645252;216;32871;-74
2022/06/08 11:17:45;;;;;;;2.20;0.73;;;28.40;1.40;;;33.14;40.28;94739.09;645786;216;31909;-75
2022/06/08 11:20:27;;;;;;;1.62;0.57;;;28.20;1.40;;;34.20;39.56;94739.08;646849;212;33225;-75
2022/06/08 11:23:22;;;;;;;0.93;0.60;;;28.50;1.40;;;34.68;41.52;94737.27;646800;212;31511;-77
2022/06/08 11:26:46;;;;;;;0.70;0.60;;;28.60;1.40;;;32.95;40.45;94731.72;646311;212;31691;-74
2022/06/08 11:32:01;;;;;;;0.82;0.70;;;28.00;1.40;;;35.55;37.22;94714.25;646045;216;31776;-74
2022/06/08 11:36:00;;;;;;;0.52;0.50;;;28.70;1.40;;;31.49;38.70;94724.23;646985;216;31732;-73
2022/06/08 11:39:04;;;;;;;1.80;0.60;;;25.60;1.40;;;33.09;42.14;94716.01;647327;216;31474;-73
2022/06/08 11:43:53;;;;;;;1.70;0.70;;;28.70;1.40;;;37.16;37.00;94705.32;646633;216;31723;-73
2022/06/08 11:46:38;;;;;;;1.12;0.70;;;30.60;1.40;;;35.87;36.57;94708.99;645527;216;31536;-74
2022/06/08 11:52:00;;;;;;;0.80;0.77;;;29.20;1.40;;;34.26;33.77;94701.54;643138;215;32186;-77
2022/06/08 11:54:48;;;;;;;1.00;0.80;;;27.30;1.40;;;32.75;37.41;94698.01;646231;216;31469;-73
2022/06/08 11:57:30;;;;;;;1.37;0.70;;;27.60;1.40;;;35.97;34.39;94687.70;646621;216;31609;-73
2022/06/08 12:00:27;;;;;;;0.80;0.70;;;28.10;1.40;;;33.91;36.96;94687.20;646671;212;42122;-74
2022/06/08 12:03:48;;;;;;;0.65;0.60;;;27.50;1.40;;;34.98;33.99;94688.43;645731;216;32428;-73
2022/06/08 12:06:33;;;;;;;0.73;0.50;;;28.40;1.40;;;35.32;35.46;94679.13;646783;216;31913;-73
2022/06/08 12:09:21;;;;;;;1.27;0.70;;;27.60;1.40;;;34.04;37.63;94681.90;647308;216;31497;-74
2022/06/08 12:12:05;;;;;;;0.50;0.50;;;26.50;1.40;;;32.02;39.99;94677.61;646598;212;31708;-75
2022/06/08 12:14:47;;;;;;;1.20;0.85;;;24.90;1.40;;;29.19;46.34;94678.77;647538;216;31495;-73
2022/06/08 12:17:38;;;;;;;1.70;0.60;;;24.10;1.40;;;30.04;42.83;94676.59;619227;226;33266;-77
2022/06/08 12:20:36;;;;;;;1.50;0.70;;;25.30;1.40;;;31.37;43.34;94671.23;619099;226;32073;-72
2022/06/08 12:23:17;;;;;;;1.00;0.88;;;26.00;1.40;;;32.04;44.00;94666.41;642637;215;31858;-75
2022/06/08 12:25:59;;;;;;;1.92;0.70;;;27.40;1.40;;;33.54;40.55;94658.17;647191;212;31570;-76
2022/06/08 12:28:40;;;;;;;2.20;0.70;;;28.10;1.40;;;35.51;39.64;94657.36;646783;212;31746;-75
2022/06/08 12:31:25;;;;;;;1.20;1.10;;;28.80;1.40;;;34.75;37.58;94652.55;646339;216;31632;-73
2022/06/08 12:38:57;;;;;;;1.80;1.00;;;28.20;1.40;;;36.42;36.11;94639.73;646105;216;31630;-73
2022/06/08 12:41:48;;;;;;;0.90;0.80;;;28.00;1.40;;;35.47;38.38;94647.84;646822;216;31513;-78
2022/06/08 12:44:37;;;;;;;2.17;0.77;;;28.20;1.40;;;35.62;37.97;94644.33;646997;216;31503;-73
2022/06/08 12:47:18;;;;;;;0.77;0.68;;;28.10;1.40;;;34.74;38.01;94646.66;646329;216;31576;-73
2022/06/08 12:50:15;;;;;;;0.80;0.70;;;27.60;1.40;;;34.88;36.99;94637.48;646719;216;31483;-77
2022/06/08 12:53:02;;;;;;;1.10;0.90;;;27.30;1.40;;;32.99;38.96;94635.81;647333;216;31539;-73
2022/06/08 12:55:43;;;;;;;0.85;0.80;;;27.50;1.40;;;34.90;37.32;94626.20;647767;216;31513;-77
2022/06/08 12:58:25;;;;;;;1.50;0.85;;;28.50;1.40;;;35.02;35.73;94627.42;646767;216;31522;-77
2022/06/08 13:01:10;;;;;;;0.77;0.77;;;28.60;1.40;;;36.48;36.02;94618.52;647261;216;31750;-77
2022/06/08 13:03:52;;;;;;;1.00;0.80;;;29.20;1.40;;;36.66;37.71;94616.80;619794;226;42497;-77
2022/06/08 13:06:34;;;;;;;0.73;0.60;;;29.30;1.40;;;34.19;39.20;94618.24;646538;212;31750;-77